Lincolnton, North Carolina
Current Conditions -  °F | °C
As of 6:55 AM on Monday 24 Nov 2014 (Local Time) from KIPJ Reporting Station
Overcast Overcast  
Wind Chill: 58°   Ceiling: 1700
Heat Index: 58°   Visibility: 10mi
Dew Point: 55°   Wind: 7mph
Humidity: 90%   Direction: 220°SW
Pressure: 29.76"   Gusts: NA
Location:  35.47°N, 81.26°W
Report Text: KIPJ 241155Z AUTO 22006KT 10SM BKN017 OVC034 15/13 A2976 RMK AO2 70144 T01470130 10154 20145
Loading
Personal Weather Stations






























Interactive Weather Map New forecast layout! Learn more

10-Day Weather Forecast

Advertisements
Track Severe Weather on mobile